Time;durP1;ratioP1;P1;durP2;ratioP2;P2;SDS_P1;SDS_P2;PMS_P1;PMS_P2;Temp;Humidity;BMP_temperature;BMP_pressure;BME280_temperature;BME280_humidity;BME280_pressure;Samples;Min_cycle;Max_cycle;Signal;HPM_P1;HPM_P2
2022/04/14 00:00:24;;;;;;;16.17;6.43;;;11.90;99.90;;;;;;4949380;28;20080;-74
2022/04/14 00:02:51;;;;;;;17.15;6.45;;;11.90;99.90;;;;;;4999382;28;20056;-74
2022/04/14 00:05:17;;;;;;;15.23;6.38;;;11.90;99.90;;;;;;4937437;28;213790;-77
2022/04/14 00:07:44;;;;;;;15.20;6.28;;;11.80;99.90;;;;;;5001822;28;20522;-76
2022/04/14 00:10:11;;;;;;;13.27;6.32;;;11.80;99.90;;;;;;4951928;28;20042;-74
2022/04/14 00:12:39;;;;;;;15.57;7.05;;;11.80;99.90;;;;;;4982820;28;20400;-75
2022/04/14 00:15:06;;;;;;;14.73;6.82;;;11.70;99.90;;;;;;4954829;28;20045;-75
2022/04/14 00:17:33;;;;;;;15.20;7.18;;;11.70;99.90;;;;;;4983675;28;20065;-74
2022/04/14 00:20:00;;;;;;;16.00;7.60;;;11.70;99.90;;;;;;4971577;28;20038;-74
2022/04/14 00:22:26;;;;;;;16.98;7.50;;;11.70;99.90;;;;;;4981569;28;20045;-74
2022/04/14 00:24:52;;;;;;;17.50;7.43;;;11.60;99.90;;;;;;4956036;28;20053;-75
2022/04/14 00:27:19;;;;;;;15.88;7.65;;;11.60;99.90;;;;;;5006991;28;20034;-74
2022/04/14 00:29:48;;;;;;;18.30;8.23;;;11.60;99.90;;;;;;4954355;28;20058;-75
2022/04/14 00:32:15;;;;;;;16.77;8.50;;;11.60;99.90;;;;;;4992135;28;20104;-76
2022/04/14 00:34:41;;;;;;;18.50;8.35;;;11.60;99.90;;;;;;4963065;28;20112;-75
2022/04/14 00:37:09;;;;;;;19.38;8.43;;;11.60;99.90;;;;;;4982112;28;20054;-74
2022/04/14 00:39:35;;;;;;;14.85;8.82;;;11.60;99.90;;;;;;4965617;28;20053;-74
2022/04/14 00:42:12;;;;;;;17.98;8.60;;;11.50;99.90;;;;;;5004909;28;20033;-74
2022/04/14 00:44:39;;;;;;;19.40;9.00;;;11.50;99.90;;;;;;4953793;28;20057;-74
2022/04/14 00:47:07;;;;;;;19.00;8.50;;;11.50;99.90;;;;;;4970113;28;20050;-76
2022/04/14 00:49:34;;;;;;;15.68;8.88;;;11.50;99.90;;;;;;4928086;28;20061;-74
2022/04/14 00:52:00;;;;;;;17.15;8.65;;;11.40;99.90;;;;;;4992489;28;20056;-75
2022/04/14 00:54:30;;;;;;;17.23;9.02;;;11.40;99.90;;;;;;4949770;28;20439;-77
2022/04/14 00:57:00;;;;;;;19.05;8.65;;;11.40;99.90;;;;;;4962339;28;20050;-76
2022/04/14 00:59:27;;;;;;;16.13;8.98;;;11.40;99.90;;;;;;4933408;28;20059;-75
2022/04/14 01:01:55;;;;;;;15.45;9.00;;;11.30;99.90;;;;;;4976926;28;20045;-74
2022/04/14 01:04:21;;;;;;;17.98;8.80;;;11.30;99.90;;;;;;4929971;28;162185;-77
2022/04/14 01:06:47;;;;;;;16.42;8.60;;;11.30;99.90;;;;;;4998511;28;20046;-74
2022/04/14 01:09:16;;;;;;;16.38;8.80;;;11.20;99.90;;;;;;4958277;28;20065;-74
2022/04/14 01:11:45;;;;;;;20.15;9.18;;;11.20;99.90;;;;;;4980035;28;20069;-74
2022/04/14 01:14:29;;;;;;;14.38;8.60;;;11.20;99.90;;;;;;4953173;28;20477;-75
2022/04/14 01:16:57;;;;;;;18.08;8.75;;;11.20;99.90;;;;;;5007049;28;20053;-75
2022/04/14 01:19:23;;;;;;;19.08;9.20;;;11.20;99.90;;;;;;4979062;28;20046;-76
2022/04/14 01:22:06;;;;;;;18.52;9.25;;;11.20;99.90;;;;;;4988701;28;20053;-75
2022/04/14 01:24:34;;;;;;;17.20;9.82;;;11.10;99.90;;;;;;4952357;28;20053;-74
2022/04/14 01:27:00;;;;;;;17.45;9.38;;;11.10;99.90;;;;;;4973094;28;20057;-75
2022/04/14 01:29:28;;;;;;;18.15;9.82;;;11.00;99.90;;;;;;4957585;28;20060;-74
2022/04/14 01:31:55;;;;;;;18.17;10.02;;;11.00;99.90;;;;;;4977413;28;20057;-74
2022/04/14 01:34:22;;;;;;;17.42;9.73;;;11.00;99.90;;;;;;4953001;28;20049;-75
2022/04/14 01:36:48;;;;;;;22.15;10.50;;;10.90;99.90;;;;;;4973558;28;20054;-77
2022/04/14 01:39:14;;;;;;;20.02;9.98;;;10.90;99.90;;;;;;4958769;28;20065;-74
2022/04/14 01:41:41;;;;;;;19.83;9.60;;;10.90;99.90;;;;;;4977003;28;20065;-74
2022/04/14 01:44:09;;;;;;;17.88;10.48;;;10.80;99.90;;;;;;4937932;28;20054;-76
2022/04/14 01:46:37;;;;;;;21.30;11.27;;;10.80;99.90;;;;;;4968157;28;20057;-74
2022/04/14 01:49:04;;;;;;;19.67;10.80;;;10.70;99.90;;;;;;4963722;28;20527;-74
2022/04/14 01:51:31;;;;;;;20.85;10.63;;;10.70;99.90;;;;;;4998569;28;20054;-74
2022/04/14 01:53:57;;;;;;;19.83;10.20;;;10.70;99.90;;;;;;4953247;28;20042;-75
2022/04/14 01:56:23;;;;;;;20.17;10.98;;;10.70;99.90;;;;;;4978052;28;20133;-74
2022/04/14 01:58:50;;;;;;;21.50;10.85;;;10.60;99.90;;;;;;4952254;28;20057;-71
2022/04/14 02:01:16;;;;;;;19.33;11.52;;;10.60;99.90;;;;;;4923555;28;20046;-75
2022/04/14 02:03:42;;;;;;;20.95;10.85;;;10.60;99.90;;;;;;4955152;28;20069;-76
2022/04/14 02:06:09;;;;;;;19.15;11.50;;;10.60;99.90;;;;;;4928847;28;234045;-78
2022/04/14 02:08:36;;;;;;;20.13;11.32;;;10.50;99.90;;;;;;4973710;28;20062;-75
2022/04/14 02:11:03;;;;;;;19.45;10.75;;;10.50;99.90;;;;;;4948000;28;20676;-73
2022/04/14 02:13:30;;;;;;;20.08;11.75;;;10.50;99.90;;;;;;4975896;28;20161;-74
2022/04/14 02:15:57;;;;;;;20.10;12.02;;;10.40;99.90;;;;;;4935065;28;20130;-75
2022/04/14 02:18:23;;;;;;;24.42;12.38;;;10.40;99.90;;;;;;4994510;28;20049;-76
2022/04/14 02:20:50;;;;;;;20.67;11.68;;;10.40;99.90;;;;;;4937641;28;20057;-74
2022/04/14 02:23:16;;;;;;;22.08;12.48;;;10.40;99.90;;;;;;4991831;28;20065;-74
2022/04/14 02:25:42;;;;;;;26.98;14.57;;;10.40;99.90;;;;;;4951192;28;20048;-74
2022/04/14 02:28:09;;;;;;;22.67;13.50;;;10.40;99.90;;;;;;4997310;28;20061;-78
2022/04/14 02:30:35;;;;;;;23.08;13.63;;;10.30;99.90;;;;;;4953135;28;20041;-74
2022/04/14 02:33:02;;;;;;;22.08;13.20;;;10.30;99.90;;;;;;5014766;28;20046;-74
2022/04/14 02:35:28;;;;;;;24.63;14.57;;;10.30;99.90;;;;;;4937117;28;20058;-75
2022/04/14 02:37:57;;;;;;;23.70;13.95;;;10.20;99.90;;;;;;4974182;28;20522;-74
2022/04/14 02:40:24;;;;;;;25.08;15.20;;;10.20;99.90;;;;;;4914553;28;20542;-74
2022/04/14 02:42:53;;;;;;;24.83;14.43;;;10.20;99.90;;;;;;4976956;28;20058;-74
2022/04/14 02:45:20;;;;;;;25.45;15.02;;;10.10;99.90;;;;;;4920733;28;20058;-74
2022/04/14 02:47:46;;;;;;;23.15;13.50;;;10.10;99.90;;;;;;4973585;28;20507;-74
2022/04/14 02:50:13;;;;;;;24.35;15.48;;;10.10;99.90;;;;;;4920198;28;20054;-76
2022/04/14 02:52:39;;;;;;;25.85;15.73;;;10.00;99.90;;;;;;4973737;28;20065;-75
2022/04/14 02:55:05;;;;;;;28.20;16.55;;;10.00;99.90;;;;;;4963392;28;20065;-74
2022/04/14 02:57:32;;;;;;;22.85;14.63;;;10.00;99.90;;;;;;5000986;28;20069;-76
2022/04/14 02:59:58;;;;;;;26.05;16.15;;;10.00;99.90;;;;;;4962158;28;20056;-74
2022/04/14 03:02:24;;;;;;;25.67;16.10;;;10.00;99.90;;;;;;4995423;28;20053;-74
2022/04/14 03:04:51;;;;;;;26.80;15.88;;;9.90;99.90;;;;;;4950185;28;198011;-74
2022/04/14 03:07:17;;;;;;;27.13;16.23;;;9.90;99.90;;;;;;5001855;28;20495;-74
2022/04/14 03:09:43;;;;;;;23.73;16.05;;;9.90;99.90;;;;;;4960687;28;20126;-76
2022/04/14 03:12:10;;;;;;;30.58;17.02;;;9.90;99.90;;;;;;4993606;28;20077;-75
2022/04/14 03:14:36;;;;;;;27.23;17.33;;;9.80;99.90;;;;;;4949956;28;20062;-74
2022/04/14 03:17:02;;;;;;;27.52;17.42;;;9.80;99.90;;;;;;4983934;28;20046;-75
2022/04/14 03:19:28;;;;;;;26.38;18.27;;;9.80;99.90;;;;;;4948028;28;20084;-76
2022/04/14 03:21:54;;;;;;;27.80;17.75;;;9.80;99.90;;;;;;4994661;28;20058;-75
2022/04/14 03:24:20;;;;;;;29.95;19.42;;;9.70;99.90;;;;;;4940828;28;20064;-74
2022/04/14 03:26:46;;;;;;;31.70;20.13;;;9.70;99.90;;;;;;4955046;28;20077;-74
2022/04/14 03:29:12;;;;;;;28.45;18.50;;;9.70;99.90;;;;;;4944038;28;20519;-76
2022/04/14 03:31:39;;;;;;;33.58;20.02;;;9.70;99.90;;;;;;4970934;28;20050;-74
2022/04/14 03:34:05;;;;;;;33.40;21.55;;;9.70;99.90;;;;;;4946221;28;20043;-74
2022/04/14 03:36:31;;;;;;;30.50;20.90;;;9.60;99.90;;;;;;5000998;28;20499;-74
2022/04/14 03:38:57;;;;;;;33.70;20.17;;;9.60;99.90;;;;;;4964654;28;20049;-73
2022/04/14 03:41:24;;;;;;;29.85;19.23;;;9.60;99.90;;;;;;4974756;28;20065;-72
2022/04/14 03:43:50;;;;;;;28.15;19.77;;;9.50;99.90;;;;;;4979886;28;20085;-72
2022/04/14 03:46:18;;;;;;;37.95;21.45;;;9.50;99.90;;;;;;4992746;28;20046;-73
2022/04/14 03:48:44;;;;;;;27.50;20.40;;;9.50;99.90;;;;;;4986940;28;20070;-73
2022/04/14 03:51:12;;;;;;;29.08;20.10;;;9.50;99.90;;;;;;4912998;28;20049;-72
2022/04/14 03:53:38;;;;;;;30.10;21.67;;;9.40;99.90;;;;;;4980354;28;20053;-72
2022/04/14 03:56:04;;;;;;;33.15;22.10;;;9.40;99.90;;;;;;4942287;28;20403;-72
2022/04/14 03:58:30;;;;;;;29.02;21.60;;;9.30;99.90;;;;;;4988366;28;20065;-72
2022/04/14 04:00:57;;;;;;;31.60;21.58;;;9.30;99.90;;;;;;4943744;28;20043;-72
2022/04/14 04:03:23;;;;;;;34.08;23.27;;;9.30;99.90;;;;;;4988211;28;20058;-72
2022/04/14 04:05:49;;;;;;;35.83;23.42;;;9.20;99.90;;;;;;4945051;28;101275;-72
2022/04/14 04:08:15;;;;;;;37.40;23.25;;;9.20;99.90;;;;;;5003475;28;20050;-72
2022/04/14 04:10:41;;;;;;;35.20;25.13;;;9.20;99.90;;;;;;4954792;28;20539;-72
2022/04/14 04:13:07;;;;;;;33.05;22.42;;;9.20;99.90;;;;;;4995672;28;20053;-72
2022/04/14 04:15:33;;;;;;;34.38;23.10;;;9.20;99.90;;;;;;4953213;28;20049;-73
2022/04/14 04:18:00;;;;;;;38.05;25.08;;;9.10;99.90;;;;;;4989899;28;20046;-72
2022/04/14 04:20:26;;;;;;;36.30;24.73;;;9.10;99.90;;;;;;4963516;28;20057;-73
2022/04/14 04:22:52;;;;;;;41.92;25.05;;;9.10;99.90;;;;;;4995331;28;20483;-73
2022/04/14 04:25:18;;;;;;;39.28;26.50;;;9.00;99.90;;;;;;4938727;28;20064;-72
2022/04/14 04:27:44;;;;;;;37.85;26.55;;;9.00;99.90;;;;;;4998415;28;20056;-71
2022/04/14 04:30:10;;;;;;;38.78;27.13;;;9.00;99.90;;;;;;4946242;28;20074;-71
2022/04/14 04:32:39;;;;;;;36.92;26.55;;;9.00;99.90;;;;;;4977628;28;20061;-72
2022/04/14 04:35:09;;;;;;;43.70;29.10;;;8.90;99.90;;;;;;4929441;28;20059;-72
2022/04/14 04:37:35;;;;;;;43.03;27.40;;;9.00;99.90;;;;;;4974291;28;20046;-73
2022/04/14 04:40:02;;;;;;;41.42;27.80;;;9.00;99.90;;;;;;4952689;28;20053;-72
2022/04/14 04:42:28;;;;;;;40.25;27.40;;;8.90;99.90;;;;;;4992288;28;20376;-72
2022/04/14 04:44:54;;;;;;;38.45;25.25;;;8.90;99.90;;;;;;4951025;28;20061;-73
2022/04/14 04:47:20;;;;;;;39.10;26.70;;;8.80;99.90;;;;;;4991295;28;20055;-72
2022/04/14 04:49:47;;;;;;;41.35;27.45;;;8.80;99.90;;;;;;4950504;28;20060;-72
2022/04/14 04:52:14;;;;;;;41.00;28.23;;;8.80;99.90;;;;;;4999025;28;20069;-72
2022/04/14 04:54:40;;;;;;;41.60;28.67;;;8.80;99.90;;;;;;4953481;28;20814;-72
2022/04/14 04:57:07;;;;;;;44.17;27.73;;;8.80;99.90;;;;;;4986924;28;20046;-72
2022/04/14 04:59:33;;;;;;;33.58;25.33;;;8.80;99.90;;;;;;4962527;28;20053;-73
2022/04/14 05:02:00;;;;;;;45.50;30.17;;;8.70;99.90;;;;;;4990383;28;20400;-73
2022/04/14 05:04:26;;;;;;;49.28;30.92;;;8.70;99.90;;;;;;4949092;28;171201;-72
2022/04/14 05:06:52;;;;;;;46.05;29.92;;;8.70;99.90;;;;;;4992246;28;20400;-76
2022/04/14 05:09:18;;;;;;;41.35;28.88;;;8.80;99.90;;;;;;4957514;28;21213;-78
2022/04/14 05:11:44;;;;;;;42.15;29.50;;;8.80;99.90;;;;;;4987650;28;20049;-75
2022/04/14 05:14:10;;;;;;;50.40;33.65;;;8.80;99.90;;;;;;4943330;28;20400;-76
2022/04/14 05:16:37;;;;;;;45.63;31.02;;;8.70;99.90;;;;;;4982100;28;20079;-74
2022/04/14 05:19:05;;;;;;;47.70;31.45;;;8.80;99.90;;;;;;4941885;28;20057;-74
2022/04/14 05:21:31;;;;;;;61.42;35.17;;;8.80;99.90;;;;;;4985516;28;20061;-74
2022/04/14 05:23:57;;;;;;;50.90;33.35;;;8.80;99.90;;;;;;4961415;28;20053;-74
2022/04/14 05:26:23;;;;;;;50.35;33.10;;;8.80;99.90;;;;;;4965220;28;20059;-74
2022/04/14 05:28:49;;;;;;;46.67;31.67;;;8.80;99.90;;;;;;4957371;28;20070;-75
2022/04/14 05:31:15;;;;;;;45.95;32.47;;;8.80;99.90;;;;;;4952485;28;20102;-74
2022/04/14 05:33:41;;;;;;;50.33;34.30;;;8.80;99.90;;;;;;4988854;28;20038;-75
2022/04/14 05:36:08;;;;;;;52.78;34.22;;;8.90;99.90;;;;;;4946354;28;20054;-74
2022/04/14 05:38:34;;;;;;;53.72;35.65;;;8.90;99.90;;;;;;4998227;28;20472;-75
2022/04/14 05:41:00;;;;;;;56.55;36.58;;;8.90;99.90;;;;;;4956022;28;20048;-74
2022/04/14 05:43:28;;;;;;;52.67;35.53;;;9.00;99.90;;;;;;5019827;28;20057;-75
2022/04/14 05:45:55;;;;;;;53.78;35.65;;;9.00;99.90;;;;;;4964640;28;20038;-76
2022/04/14 05:48:21;;;;;;;59.45;38.25;;;9.00;99.90;;;;;;4999539;28;20096;-77
2022/04/14 05:50:49;;;;;;;59.58;37.70;;;9.10;99.90;;;;;;4944199;28;20536;-77
2022/04/14 05:53:17;;;;;;;54.30;36.03;;;9.10;99.90;;;;;;4995997;28;20076;-75
2022/04/14 05:55:47;;;;;;;58.03;37.03;;;9.10;99.90;;;;;;4956755;28;20050;-74
2022/04/14 05:58:13;;;;;;;58.15;37.75;;;9.20;99.90;;;;;;4985801;28;20054;-73
2022/04/14 06:00:40;;;;;;;65.43;40.33;;;9.20;99.90;;;;;;4924749;28;20407;-73
2022/04/14 06:03:06;;;;;;;54.85;37.20;;;9.30;99.90;;;;;;4979842;28;20054;-77
2022/04/14 06:05:33;;;;;;;62.60;39.10;;;9.30;99.90;;;;;;4880920;28;185992;-73
2022/04/14 06:08:00;;;;;;;54.65;36.70;;;9.40;99.90;;;;;;4968559;28;20255;-75
2022/04/14 06:10:27;;;;;;;57.20;36.50;;;9.40;99.90;;;;;;4943075;28;20050;-74
2022/04/14 06:12:56;;;;;;;57.00;37.67;;;9.50;99.90;;;;;;4982331;28;20050;-73
2022/04/14 06:15:23;;;;;;;53.20;39.28;;;9.60;99.90;;;;;;4914740;28;20055;-72
2022/04/14 06:17:50;;;;;;;58.15;40.33;;;9.60;99.90;;;;;;4976050;28;20062;-72
2022/04/14 06:20:16;;;;;;;61.15;39.05;;;9.70;99.90;;;;;;4958616;28;20041;-73
2022/04/14 06:22:43;;;;;;;53.78;37.90;;;9.80;99.90;;;;;;4981143;28;20053;-73
2022/04/14 06:25:17;;;;;;;58.42;38.92;;;9.90;99.90;;;;;;4939759;28;20042;-73
2022/04/14 06:27:44;;;;;;;55.83;37.60;;;10.10;99.90;;;;;;4977943;28;20046;-72
2022/04/14 06:30:12;;;;;;;53.92;37.15;;;10.30;99.90;;;;;;4940979;28;20057;-74
2022/04/14 06:32:38;;;;;;;56.95;38.25;;;10.70;99.90;;;;;;4982328;28;20355;-73
2022/04/14 06:35:06;;;;;;;50.30;36.00;;;11.00;99.90;;;;;;4935955;28;20069;-72
2022/04/14 06:37:35;;;;;;;47.85;34.55;;;11.30;99.90;;;;;;4995792;28;20454;-73
2022/04/14 06:40:04;;;;;;;40.22;30.90;;;11.70;99.90;;;;;;4975023;28;20060;-74
2022/04/14 06:42:31;;;;;;;40.22;29.63;;;12.20;99.90;;;;;;4994702;28;20446;-74
2022/04/14 06:45:00;;;;;;;39.78;28.40;;;12.60;99.90;;;;;;4957533;28;20586;-72
2022/04/14 06:47:27;;;;;;;38.42;25.98;;;13.00;99.90;;;;;;4997198;28;20559;-76
2022/04/14 06:49:54;;;;;;;34.58;25.80;;;13.10;99.90;;;;;;4969255;28;20073;-73
2022/04/14 06:52:21;;;;;;;35.95;25.67;;;13.10;99.90;;;;;;4992449;28;20046;-73
2022/04/14 06:54:48;;;;;;;35.42;24.75;;;13.20;99.90;;;;;;4953764;28;20045;-73
2022/04/14 06:57:15;;;;;;;36.05;24.60;;;13.00;99.90;;;;;;4993624;28;20045;-74
2022/04/14 06:59:41;;;;;;;35.28;24.42;;;13.20;99.90;;;;;;4975190;28;20526;-73
2022/04/14 07:02:08;;;;;;;35.05;23.67;;;13.50;99.90;;;;;;5002356;28;20422;-74
2022/04/14 07:04:34;;;;;;;32.83;22.40;;;13.80;99.90;;;;;;4948751;28;66615;-74
2022/04/14 07:07:00;;;;;;;29.98;21.08;;;14.20;99.90;;;;;;5005367;28;20069;-75
2022/04/14 07:09:31;;;;;;;27.95;20.67;;;14.30;99.90;;;;;;4964287;28;20580;-76
2022/04/14 07:11:59;;;;;;;;;;;14.10;99.90;;;;;;4993263;28;20054;-74
2022/04/14 07:14:28;;;;;;;28.75;20.00;;;13.80;99.90;;;;;;4949711;28;19925;-75
2022/04/14 07:16:58;;;;;;;30.55;20.08;;;13.60;99.90;;;;;;4992003;28;20050;-73
2022/04/14 07:19:24;;;;;;;28.20;19.10;;;13.60;99.90;;;;;;4955878;28;20041;-74
2022/04/14 07:21:51;;;;;;;30.13;19.77;;;13.90;99.90;;;;;;4991606;28;20034;-74
2022/04/14 07:24:17;;;;;;;30.02;20.88;;;14.20;99.90;;;;;;4966665;28;20053;-74
2022/04/14 07:26:44;;;;;;;27.73;19.13;;;14.60;99.90;;;;;;5005280;28;20495;-75
2022/04/14 07:29:11;;;;;;;25.73;17.95;;;14.80;99.90;;;;;;4970832;28;20051;-72
2022/04/14 07:31:37;;;;;;;23.98;18.25;;;15.10;99.90;;;;;;4996823;28;20053;-74
2022/04/14 07:34:05;;;;;;;25.27;17.88;;;15.20;99.90;;;;;;4960514;28;20057;-74
2022/04/14 07:36:31;;;;;;;24.50;16.88;;;15.40;99.90;;;;;;4983784;28;20058;-73
2022/04/14 07:38:57;;;;;;;25.95;16.85;;;15.60;99.90;;;;;;4959593;28;20057;-73
2022/04/14 07:41:24;;;;;;;24.52;17.83;;;15.80;99.90;;;;;;4964242;28;20050;-73
2022/04/14 07:43:51;;;;;;;23.08;16.40;;;16.00;99.90;;;;;;4952107;28;20499;-75
2022/04/14 07:46:17;;;;;;;22.02;16.90;;;16.10;99.90;;;;;;4942534;28;20061;-72
2022/04/14 07:48:43;;;;;;;24.50;16.58;;;16.40;99.90;;;;;;4987723;28;20526;-73
2022/04/14 07:51:09;;;;;;;24.17;16.98;;;16.70;99.90;;;;;;4944715;28;20407;-74
2022/04/14 07:53:37;;;;;;;23.45;16.52;;;17.10;99.90;;;;;;4986040;28;20053;-74
2022/04/14 07:56:07;;;;;;;21.80;15.82;;;17.40;99.90;;;;;;4947860;28;20056;-74
2022/04/14 07:58:34;;;;;;;21.77;16.10;;;17.60;99.90;;;;;;5002190;28;20053;-74
2022/04/14 08:01:00;;;;;;;21.83;15.63;;;17.70;99.90;;;;;;4960665;28;20280;-73
2022/04/14 08:03:26;;;;;;;19.65;14.40;;;18.10;99.90;;;;;;5003336;28;20565;-75
2022/04/14 08:05:52;;;;;;;18.77;14.00;;;18.30;99.90;;;;;;4946710;28;214099;-73
2022/04/14 08:08:20;;;;;;;21.42;14.95;;;18.20;99.90;;;;;;4986506;28;20042;-76
2022/04/14 08:10:49;;;;;;;19.00;15.20;;;18.30;99.90;;;;;;4949975;28;20046;-75
2022/04/14 08:13:16;;;;;;;18.92;14.25;;;18.40;99.90;;;;;;5004440;28;20054;-74
2022/04/14 08:15:43;;;;;;;18.85;14.48;;;18.50;99.90;;;;;;4964468;28;20038;-73
2022/04/14 08:18:09;;;;;;;19.10;14.32;;;18.50;99.90;;;;;;4998990;28;20046;-74
2022/04/14 08:20:39;;;;;;;18.40;13.02;;;18.50;99.90;;;;;;4953516;28;20088;-74
2022/04/14 08:23:11;;;;;;;18.40;13.10;;;18.80;99.90;;;;;;5018697;28;20049;-74
2022/04/14 08:25:38;;;;;;;19.08;13.30;;;18.90;99.90;;;;;;4952054;28;20293;-74
2022/04/14 08:28:06;;;;;;;19.88;12.98;;;18.90;99.90;;;;;;5000691;28;20050;-74
2022/04/14 08:30:34;;;;;;;18.88;13.25;;;19.20;99.90;;;;;;4942086;28;20076;-74
2022/04/14 08:33:03;;;;;;;19.08;13.45;;;19.30;99.90;;;;;;4975713;28;20050;-73
2022/04/14 08:35:32;;;;;;;18.23;13.25;;;19.10;99.90;;;;;;4929274;28;20047;-75
2022/04/14 08:38:01;;;;;;;20.00;13.98;;;19.10;99.40;;;;;;4977022;28;20075;-73
2022/04/14 08:40:34;;;;;;;17.85;13.65;;;18.90;99.60;;;;;;4930604;28;20084;-71
2022/04/14 08:43:06;;;;;;;17.08;13.38;;;18.90;99.80;;;;;;4979221;28;20534;-73
2022/04/14 08:45:46;;;;;;;17.88;13.25;;;19.00;99.90;;;;;;4942166;28;20531;-73
2022/04/14 08:48:13;;;;;;;18.13;14.00;;;19.30;97.80;;;;;;4985307;28;20058;-74
2022/04/14 08:50:41;;;;;;;16.83;13.30;;;19.40;98.40;;;;;;4974955;28;20076;-75
2022/04/14 08:53:07;;;;;;;18.10;13.30;;;19.50;99.10;;;;;;5017399;28;20057;-76
2022/04/14 08:55:38;;;;;;;18.75;13.98;;;19.70;98.90;;;;;;4951481;28;20537;-76
2022/04/14 08:58:05;;;;;;;18.75;13.50;;;19.70;98.20;;;;;;5001579;28;20049;-74
2022/04/14 09:00:32;;;;;;;18.80;13.88;;;19.80;98.50;;;;;;4915509;23;1754197;-80
2022/04/14 09:03:00;;;;;;;17.33;13.65;;;20.10;98.30;;;;;;5004257;28;20077;-80
2022/04/14 09:05:26;;;;;;;17.90;13.05;;;20.10;96.70;;;;;;4957012;28;187610;-80
2022/04/14 09:07:52;;;;;;;17.15;13.05;;;20.40;98.30;;;;;;4988573;28;20046;-80
2022/04/14 09:10:19;;;;;;;17.67;12.60;;;20.70;96.50;;;;;;4953183;28;20045;-80
2022/04/14 09:12:48;;;;;;;17.88;12.57;;;21.00;94.80;;;;;;5000086;28;20382;-80
2022/04/14 09:15:15;;;;;;;17.80;13.27;;;20.90;93.70;;;;;;4975637;28;20046;-80
2022/04/14 09:17:41;;;;;;;18.77;13.85;;;20.50;91.70;;;;;;4998084;28;20049;-79
2022/04/14 09:20:27;;;;;;;16.88;12.57;;;20.60;93.20;;;;;;4979526;28;20065;-80
2022/04/14 09:23:22;;;;;;;14.93;12.15;;;20.50;92.30;;;;;;5009574;28;20056;-80
2022/04/14 09:25:50;;;;;;;16.58;12.88;;;20.50;93.10;;;;;;4962305;28;20125;-80
2022/04/14 09:28:19;;;;;;;15.48;10.98;;;20.50;90.80;;;;;;5003942;28;20057;-81
2022/04/14 09:31:09;;;;;;;15.80;12.70;;;20.60;92.70;;;;;;4943148;28;20050;-81
2022/04/14 09:33:46;;;;;;;17.77;12.10;;;20.80;89.10;;;;;;5005059;28;20064;-79
2022/04/14 09:36:16;;;;;;;16.15;11.25;;;20.50;91.50;;;;;;4935580;28;20034;-79
2022/04/14 09:38:51;;;;;;;16.08;11.77;;;20.90;90.30;;;;;;5002291;28;20061;-80
2022/04/14 09:41:41;;;;;;;14.30;10.70;;;21.00;89.10;;;;;;4928328;28;20053;-79
2022/04/14 09:44:13;;;;;;;14.05;10.82;;;21.30;89.00;;;;;;4959799;28;20832;-79
2022/04/14 09:46:46;;;;;;;15.55;10.52;;;21.00;88.60;;;;;;4994339;28;20053;-80
2022/04/14 09:49:17;;;;;;;13.55;10.05;;;21.10;84.30;;;;;;4967207;28;20057;-80
2022/04/14 09:51:45;;;;;;;12.65;8.63;;;20.50;86.60;;;;;;4976014;28;20053;-80
2022/04/14 09:54:17;;;;;;;11.73;7.60;;;20.10;88.60;;;;;;4957675;28;20441;-79
2022/04/14 09:56:45;;;;;;;14.05;8.70;;;19.60;87.60;;;;;;4987682;28;20427;-80
2022/04/14 09:59:14;;;;;;;13.50;9.27;;;19.70;90.00;;;;;;4974953;28;20155;-80
2022/04/14 10:01:41;;;;;;;14.23;8.25;;;19.50;90.90;;;;;;4999207;28;20073;-80
2022/04/14 10:04:10;;;;;;;15.20;9.13;;;19.40;91.50;;;;;;4953200;28;180416;-79
2022/04/14 10:06:36;;;;;;;15.80;9.50;;;19.30;91.70;;;;;;5008609;28;20061;-79
2022/04/14 10:09:02;;;;;;;12.52;7.18;;;19.50;93.60;;;;;;4977873;28;20037;-79
2022/04/14 10:11:32;;;;;;;12.82;7.15;;;19.60;91.90;;;;;;5009147;28;20168;-79
2022/04/14 10:14:15;;;;;;;12.52;7.68;;;19.40;92.30;;;;;;4973213;28;20054;-79
2022/04/14 10:16:41;;;;;;;12.05;7.40;;;19.30;91.60;;;;;;4979019;28;20046;-79
2022/04/14 10:19:09;;;;;;;21.55;8.27;;;19.50;91.80;;;;;;4956198;28;20039;-78
2022/04/14 10:21:37;;;;;;;13.10;7.30;;;19.30;91.60;;;;;;4988879;28;20062;-80
2022/04/14 10:24:05;;;;;;;13.90;7.57;;;19.00;93.00;;;;;;4969312;28;20062;-80
2022/04/14 10:26:35;;;;;;;13.88;6.72;;;19.70;92.90;;;;;;4985557;28;20050;-80
2022/04/14 10:29:03;;;;;;;11.88;5.10;;;19.90;91.20;;;;;;4962527;28;20061;-79
2022/04/14 10:31:32;;;;;;;10.23;4.70;;;19.80;89.90;;;;;;4980517;28;20080;-79
2022/04/14 10:34:04;;;;;;;11.18;4.30;;;19.10;88.70;;;;;;4976328;28;20057;-79
2022/04/14 10:36:38;;;;;;;10.00;4.22;;;19.00;88.00;;;;;;5002322;28;20057;-80
2022/04/14 10:39:11;;;;;;;10.23;3.92;;;18.60;89.80;;;;;;4974688;28;20046;-79
2022/04/14 10:41:42;;;;;;;9.93;4.40;;;18.70;90.60;;;;;;4986867;28;20061;-80
2022/04/14 10:44:09;;;;;;;9.43;4.00;;;19.10;90.60;;;;;;4967600;28;20139;-78
2022/04/14 10:46:40;;;;;;;11.75;4.55;;;19.80;90.10;;;;;;4996984;28;20058;-80
2022/04/14 10:49:25;;;;;;;10.02;4.07;;;20.10;89.00;;;;;;4959074;28;20447;-80
2022/04/14 10:51:57;;;;;;;10.55;4.15;;;20.20;86.10;;;;;;4989518;28;20061;-80
2022/04/14 10:54:23;;;;;;;10.57;4.03;;;20.10;90.00;;;;;;4956489;28;20435;-80
2022/04/14 10:56:50;;;;;;;11.25;3.92;;;20.50;87.10;;;;;;4972711;28;20388;-81
2022/04/14 10:59:21;;;;;;;13.23;3.72;;;20.90;84.40;;;;;;4958911;28;20064;-80
2022/04/14 11:01:50;;;;;;;;;;;20.50;81.00;;;;;;4970994;28;20439;-81
2022/04/14 11:04:50;;;;;;;10.18;3.20;;;20.40;80.30;;;;;;4959646;28;19921;-80
2022/04/14 11:07:23;;;;;;;10.07;3.35;;;20.00;82.70;;;;;;4977739;28;20062;-80
2022/04/14 11:09:51;;;;;;;9.77;3.25;;;19.70;80.50;;;;;;4965594;28;20050;-79
2022/04/14 11:12:39;;;;;;;9.90;3.50;;;18.90;81.80;;;;;;4995846;28;20038;-80
2022/04/14 11:15:06;;;;;;;11.07;4.25;;;19.00;83.40;;;;;;4961376;28;20046;-80
2022/04/14 11:17:40;;;;;;;10.60;4.07;;;19.10;85.30;;;;;;4988725;28;20057;-81
2022/04/14 11:20:22;;;;;;;10.80;4.38;;;20.00;85.50;;;;;;4957682;28;20037;-79
2022/04/14 11:23:03;;;;;;;9.73;3.45;;;20.50;82.30;;;;;;5008623;28;20640;-80
2022/04/14 11:25:45;;;;;;;9.35;3.50;;;20.00;79.90;;;;;;4950835;28;20054;-79
2022/04/14 11:28:21;;;;;;;9.00;3.53;;;19.40;82.20;;;;;;5023292;28;20046;-81
2022/04/14 11:30:50;;;;;;;9.05;2.22;;;19.60;83.90;;;;;;4975227;28;20042;-78
2022/04/14 11:33:28;;;;;;;9.02;1.80;;;19.40;81.70;;;;;;5018871;28;20054;-82
2022/04/14 11:36:15;;;;;;;8.98;2.30;;;18.80;78.80;;;;;;4953360;28;20053;-81
2022/04/14 11:38:51;;;;;;;9.68;2.25;;;18.50;83.10;;;;;;5010491;28;20049;-80
2022/04/14 11:41:50;;;;;;;7.97;2.17;;;19.10;86.80;;;;;;4936887;28;20045;-78
2022/04/14 11:44:30;;;;;;;9.02;2.20;;;18.90;79.10;;;;;;4936287;28;20061;-80
2022/04/14 11:47:04;;;;;;;11.05;2.00;;;19.40;83.60;;;;;;4966468;28;20054;-80
2022/04/14 11:49:33;;;;;;;10.38;2.05;;;20.20;82.90;;;;;;4943027;28;20042;-86
2022/04/14 11:52:01;;;;;;;9.07;2.30;;;20.80;79.00;;;;;;4965569;28;20066;-82
2022/04/14 11:54:27;;;;;;;8.85;2.28;;;20.40;75.20;;;;;;4952550;28;20057;-81
2022/04/14 11:56:57;;;;;;;7.97;2.00;;;20.00;76.50;;;;;;4968451;28;20050;-80
2022/04/14 11:59:35;;;;;;;9.00;2.10;;;19.50;76.60;;;;;;4946232;28;20407;-82
2022/04/14 12:02:05;;;;;;;9.30;2.47;;;19.60;78.70;;;;;;4985136;28;20085;-81
2022/04/14 12:04:39;;;;;;;10.68;2.78;;;19.90;79.10;;;;;;4911828;28;231582;-81
2022/04/14 12:07:07;;;;;;;9.82;2.85;;;19.90;78.50;;;;;;4974513;28;20097;-78
2022/04/14 12:09:34;;;;;;;10.32;2.58;;;20.20;79.30;;;;;;4933932;28;20054;-79
2022/04/14 12:12:18;;;;;;;8.20;2.50;;;20.60;79.00;;;;;;4963891;28;20084;-80
2022/04/14 12:14:52;;;;;;;9.15;2.45;;;20.80;76.50;;;;;;4917623;28;20038;-78
2022/04/14 12:17:22;;;;;;;9.93;2.60;;;21.00;79.10;;;;;;4952435;28;20042;-78
2022/04/14 12:19:55;;;;;;;7.90;2.10;;;21.40;76.80;;;;;;4941381;28;20412;-79
2022/04/14 12:22:23;;;;;;;8.88;2.38;;;20.50;74.60;;;;;;4974644;28;21655;-78
2022/04/14 12:24:55;;;;;;;8.32;2.22;;;20.00;74.90;;;;;;4936484;28;20054;-80
2022/04/14 12:27:27;;;;;;;8.25;2.25;;;19.70;75.80;;;;;;4997862;28;20534;-79
2022/04/14 12:29:54;;;;;;;8.23;2.20;;;19.80;76.50;;;;;;4956985;28;20400;-78
2022/04/14 12:32:27;;;;;;;9.15;2.00;;;19.90;77.00;;;;;;4991867;28;20069;-79
2022/04/14 12:34:55;;;;;;;8.52;1.88;;;20.00;73.60;;;;;;4959661;28;20570;-80
2022/04/14 12:37:21;;;;;;;6.35;1.77;;;20.30;73.30;;;;;;4999541;28;20046;-78
2022/04/14 12:40:17;;;;;;;8.23;1.95;;;20.40;73.90;;;;;;4970528;28;20056;-79